createdAt,value
2019-05-26T00:03:33.659Z,15.23
2019-05-26T00:08:36.122Z,14.95
2019-05-26T00:13:38.577Z,15.08
2019-05-26T00:18:41.055Z,14.81
2019-05-26T00:23:43.519Z,14.88
2019-05-26T00:28:45.992Z,14.87
2019-05-26T00:33:48.519Z,14.91
2019-05-26T00:38:50.982Z,14.72
2019-05-26T00:43:53.468Z,15.06
2019-05-26T00:48:56.529Z,14.95
2019-05-26T00:53:59.169Z,14.66
2019-05-26T00:59:01.631Z,14.59
2019-05-26T01:04:04.118Z,14.32
2019-05-26T01:09:06.623Z,14.47
2019-05-26T01:14:09.106Z,14.52
2019-05-26T01:19:11.576Z,14.40
2019-05-26T01:24:14.051Z,14.24
2019-05-26T01:29:16.527Z,14.24
2019-05-26T01:34:19.022Z,14.44
2019-05-26T01:39:21.491Z,14.45
2019-05-26T01:44:24.025Z,14.50
2019-05-26T01:49:26.453Z,14.37
2019-05-26T01:54:28.927Z,14.46
2019-05-26T01:59:31.401Z,14.37
2019-05-26T02:04:33.892Z,14.28
2019-05-26T02:09:36.356Z,14.21
2019-05-26T02:14:38.870Z,14.24
2019-05-26T02:19:41.345Z,14.09
2019-05-26T02:24:43.818Z,14.05
2019-05-26T02:29:46.282Z,13.93
2019-05-26T02:34:48.749Z,14.12
2019-05-26T02:39:51.398Z,13.89
2019-05-26T02:44:58.899Z,14.02
2019-05-26T02:49:56.323Z,13.89
2019-05-26T02:54:58.799Z,13.73
2019-05-26T03:00:01.265Z,13.76
2019-05-26T03:05:03.764Z,13.73
2019-05-26T03:10:06.226Z,13.70
2019-05-26T03:15:08.702Z,13.61
2019-05-26T03:20:14.375Z,13.71
2019-05-26T03:25:16.849Z,13.59
2019-05-26T03:30:19.313Z,13.57
2019-05-26T03:35:21.830Z,13.54
2019-05-26T03:40:24.301Z,13.42
2019-05-26T03:45:38.996Z,13.59
2019-05-26T03:50:41.473Z,13.42
2019-05-26T03:55:43.956Z,13.59
2019-05-26T04:00:46.424Z,13.69
2019-05-26T04:05:48.886Z,13.84
2019-05-26T04:10:51.358Z,14.01
2019-05-26T04:15:53.861Z,14.21
2019-05-26T04:20:56.335Z,14.45
2019-05-26T04:25:58.790Z,14.55
2019-05-26T04:31:01.325Z,14.84
2019-05-26T04:36:03.814Z,14.88
2019-05-26T04:41:06.368Z,14.94
2019-05-26T04:46:10.654Z,14.98
2019-05-26T04:51:13.046Z,15.07
2019-05-26T04:56:15.509Z,15.24
2019-05-26T05:01:18.023Z,15.39
2019-05-26T05:06:20.498Z,15.65
2019-05-26T05:11:23.031Z,15.82
2019-05-26T05:16:25.546Z,16.00
2019-05-26T05:21:28.505Z,16.12
2019-05-26T05:26:31.001Z,16.36
2019-05-26T05:31:33.504Z,16.48
2019-05-26T05:36:36.627Z,16.87
2019-05-26T05:41:40.732Z,17.13
2019-05-26T05:46:43.184Z,17.51
2019-05-26T05:51:45.655Z,18.29
2019-05-26T05:56:48.108Z,20.12
2019-05-26T06:01:50.580Z,22.34
2019-05-26T06:06:53.037Z,23.29
2019-05-26T06:11:57.049Z,23.77
2019-05-26T06:16:57.970Z,23.86
2019-05-26T06:22:00.429Z,24.54
2019-05-26T06:27:02.896Z,24.54
2019-05-26T06:32:05.695Z,24.78
2019-05-26T06:37:07.829Z,24.35
2019-05-26T06:42:12.962Z,24.53
2019-05-26T06:47:13.348Z,25.05
2019-05-26T06:52:15.821Z,25.56
2019-05-26T06:57:18.293Z,25.26
2019-05-26T07:02:20.757Z,25.81
2019-05-26T07:07:23.216Z,25.62
2019-05-26T07:12:26.997Z,26.07
2019-05-26T07:17:29.489Z,26.25
2019-05-26T07:22:31.955Z,26.48
2019-05-26T07:27:34.419Z,26.00
2019-05-26T07:32:36.874Z,26.09
2019-05-26T07:37:39.379Z,26.68
2019-05-26T07:42:41.868Z,26.97
2019-05-26T07:47:45.153Z,27.16
2019-05-26T07:52:47.624Z,28.03
2019-05-26T07:57:50.093Z,28.03
2019-05-26T08:02:52.553Z,27.81
2019-05-26T08:08:09.633Z,28.45
2019-05-26T08:12:57.531Z,28.81
2019-05-26T08:18:00.020Z,29.09
2019-05-26T08:23:02.479Z,29.95
2019-05-26T08:28:04.952Z,30.60
2019-05-26T08:33:07.396Z,30.93
2019-05-26T08:38:09.872Z,33.90
2019-05-26T08:43:12.312Z,42.22
2019-05-26T08:48:14.799Z,48.57
2019-05-26T08:53:17.250Z,52.51
2019-05-26T08:58:19.714Z,54.10
2019-05-26T09:03:22.204Z,53.45
2019-05-26T09:08:24.665Z,55.34
2019-05-26T09:13:27.132Z,55.79
2019-05-26T09:18:29.598Z,55.56
2019-05-26T09:23:32.061Z,56.26
2019-05-26T09:28:34.523Z,58.07
2019-05-26T09:33:37.047Z,59.72
2019-05-26T09:38:39.446Z,59.74
2019-05-26T09:43:41.925Z,59.91
2019-05-26T09:48:44.409Z,62.82
2019-05-26T09:54:00.796Z,62.70
2019-05-26T09:58:49.476Z,61.63
2019-05-26T10:03:51.947Z,60.66
2019-05-26T10:08:54.420Z,52.79
2019-05-26T10:13:56.903Z,55.07
2019-05-26T10:18:59.370Z,48.61
2019-05-26T10:24:01.860Z,43.59
2019-05-26T10:29:04.344Z,41.10
2019-05-26T10:34:07.896Z,39.70
2019-05-26T10:39:10.365Z,37.99
2019-05-26T10:44:12.818Z,37.25
2019-05-26T10:49:15.288Z,36.17
2019-05-26T10:54:17.771Z,36.35
2019-05-26T10:59:20.221Z,35.93
2019-05-26T11:04:22.735Z,35.42
2019-05-26T11:09:25.222Z,35.51
2019-05-26T11:14:27.686Z,35.45
2019-05-26T11:19:30.162Z,35.58
2019-05-26T11:24:32.631Z,34.14
2019-05-26T11:29:35.112Z,33.22
2019-05-26T11:34:37.565Z,34.31
2019-05-26T11:39:40.023Z,34.42
2019-05-26T11:44:42.466Z,34.97
2019-05-26T11:49:44.943Z,35.58
2019-05-26T11:54:47.418Z,36.39
2019-05-26T11:59:49.887Z,36.82
2019-05-26T12:04:52.522Z,37.54
2019-05-26T12:09:55.015Z,37.88
2019-05-26T12:14:57.530Z,39.26
2019-05-26T12:20:00.147Z,43.07
2019-05-26T12:25:02.517Z,46.77
2019-05-26T12:30:07.947Z,38.40
2019-05-26T12:35:10.406Z,34.46
2019-05-26T12:40:12.883Z,34.85
2019-05-26T12:45:15.352Z,42.01
2019-05-26T12:50:17.862Z,35.05
2019-05-26T12:55:20.326Z,36.01
2019-05-26T13:00:22.785Z,35.62
2019-05-26T13:05:25.282Z,32.21
2019-05-26T13:10:28.017Z,36.08
2019-05-26T13:15:30.492Z,34.06
2019-05-26T13:20:32.965Z,32.51
2019-05-26T13:25:35.499Z,34.63
2019-05-26T13:30:37.993Z,34.03
2019-05-26T13:35:40.465Z,33.43
2019-05-26T13:40:42.990Z,33.18
2019-05-26T13:45:45.405Z,32.95
2019-05-26T13:50:47.876Z,32.71
2019-05-26T13:55:50.338Z,32.57
2019-05-26T14:00:52.823Z,31.88
2019-05-26T14:05:55.289Z,31.87
2019-05-26T14:10:57.764Z,31.27
2019-05-26T14:16:00.198Z,30.64
2019-05-26T14:21:02.670Z,30.30
2019-05-26T14:26:05.119Z,29.94
2019-05-26T14:31:07.595Z,29.70
2019-05-26T14:36:10.067Z,29.38
2019-05-26T14:41:12.552Z,29.02
2019-05-26T14:46:15.005Z,28.95
2019-05-26T14:51:17.483Z,28.82
2019-05-26T14:56:19.945Z,28.78
2019-05-26T15:01:22.413Z,28.72
2019-05-26T15:06:24.859Z,28.48
2019-05-26T15:11:27.345Z,28.26
2019-05-26T15:16:29.811Z,28.10
2019-05-26T15:21:32.302Z,27.91
2019-05-26T15:26:34.785Z,27.74
2019-05-26T15:31:37.257Z,27.51
2019-05-26T15:36:39.723Z,27.33
2019-05-26T15:41:42.227Z,27.18
2019-05-26T15:46:44.794Z,27.05
2019-05-26T15:51:47.158Z,26.88
2019-05-26T15:56:49.651Z,26.76
2019-05-26T16:01:52.107Z,26.66
2019-05-26T16:06:54.634Z,26.69
2019-05-26T16:11:57.115Z,26.53
2019-05-26T16:16:59.568Z,26.39
2019-05-26T16:22:02.090Z,26.11
2019-05-26T16:27:18.193Z,26.03
2019-05-26T16:32:07.057Z,26.04
2019-05-26T16:37:09.556Z,25.90
2019-05-26T16:42:12.016Z,25.82
2019-05-26T16:47:14.485Z,25.74
2019-05-26T16:52:16.962Z,25.67
2019-05-26T16:57:19.451Z,25.56
2019-05-26T17:02:21.918Z,25.50
2019-05-26T17:07:24.379Z,25.39
2019-05-26T17:12:26.846Z,25.28
2019-05-26T17:17:29.315Z,25.09
2019-05-26T17:22:31.780Z,24.94
2019-05-26T17:27:34.270Z,24.71
2019-05-26T17:32:36.745Z,24.54
2019-05-26T17:37:39.214Z,24.39
2019-05-26T17:42:41.681Z,24.19
2019-05-26T17:47:44.159Z,24.07
2019-05-26T17:52:47.339Z,23.91
2019-05-26T17:57:49.814Z,23.75
2019-05-26T18:02:52.301Z,23.62
2019-05-26T18:07:54.801Z,23.44
2019-05-26T18:12:57.326Z,23.24
2019-05-26T18:17:59.742Z,23.12
2019-05-26T18:23:02.275Z,22.95
2019-05-26T18:28:04.750Z,22.81
2019-05-26T18:33:07.207Z,22.66
2019-05-26T18:38:09.697Z,22.43
2019-05-26T18:43:12.221Z,22.28
2019-05-26T18:48:14.732Z,22.09
2019-05-26T18:53:17.192Z,21.96
2019-05-26T18:58:19.690Z,21.74
2019-05-26T19:03:22.216Z,21.58
2019-05-26T19:08:24.716Z,21.43
2019-05-26T19:13:27.224Z,21.30
2019-05-26T19:18:29.711Z,21.15
2019-05-26T19:23:32.331Z,20.96
2019-05-26T19:28:34.798Z,20.78
2019-05-26T19:33:37.252Z,20.59
2019-05-26T19:38:39.719Z,20.40
2019-05-26T19:43:42.201Z,20.17
2019-05-26T19:48:44.686Z,20.01
2019-05-26T19:53:47.147Z,19.93
2019-05-26T19:58:49.627Z,19.77
2019-05-26T20:03:52.096Z,19.54
2019-05-26T20:08:54.571Z,19.41
2019-05-26T20:13:57.033Z,19.22
2019-05-26T20:18:59.489Z,19.06
2019-05-26T20:24:01.952Z,18.98
2019-05-26T20:29:04.424Z,18.79
2019-05-26T20:34:06.896Z,18.66
2019-05-26T20:39:09.354Z,18.54
2019-05-26T20:44:11.815Z,18.43
2019-05-26T20:49:14.278Z,18.32
2019-05-26T20:54:16.735Z,18.14
2019-05-26T20:59:19.196Z,18.11
2019-05-26T21:04:21.812Z,18.02
2019-05-26T21:09:24.265Z,17.88
2019-05-26T21:14:26.726Z,17.86
2019-05-26T21:19:29.190Z,17.81
2019-05-26T21:24:31.658Z,17.75
2019-05-26T21:29:34.132Z,17.79
2019-05-26T21:34:36.587Z,17.73
2019-05-26T21:39:39.027Z,17.64
2019-05-26T21:44:41.493Z,17.38
2019-05-26T21:49:43.953Z,17.34
2019-05-26T21:54:46.433Z,17.26
2019-05-26T21:59:48.928Z,17.11
2019-05-26T22:04:51.455Z,17.08
2019-05-26T22:09:53.904Z,17.03
2019-05-26T22:14:56.356Z,16.87
2019-05-26T22:19:58.815Z,17.04
2019-05-26T22:25:01.347Z,16.85
2019-05-26T22:30:03.869Z,16.81
2019-05-26T22:35:06.284Z,16.75
2019-05-26T22:40:08.762Z,16.75
2019-05-26T22:45:11.213Z,16.89
2019-05-26T22:50:13.671Z,16.63
2019-05-26T22:55:16.136Z,16.56
2019-05-26T23:00:18.609Z,16.44
2019-05-26T23:05:21.071Z,16.38
2019-05-26T23:10:23.544Z,16.30
2019-05-26T23:15:25.993Z,16.24
2019-05-26T23:20:28.461Z,16.08
2019-05-26T23:25:30.936Z,15.92
2019-05-26T23:30:33.405Z,15.97
2019-05-26T23:35:35.859Z,15.94
2019-05-26T23:40:38.309Z,15.78
2019-05-26T23:45:40.787Z,15.73
2019-05-26T23:50:43.233Z,15.81
2019-05-26T23:55:45.696Z,15.89
